Metars

EGJB - Guernsey Airport
Distance from station: SW 8km

Current
Rain, Fog, Mostly cloudy
Rain, Fog, Mostly cloudy
 Wind from ESE
Wind: ESE 6 mph , 9 km/h
Temperature: 16°C
Dew Point: 16°C
Humidity: 100%
Barometer: 1017 hPa
Summary: Rain, Fog
Clouds: Mostly Cloudy
Visibility: 1 mile , 1 km
Cloud details: Mostly Cloudy 0 m
2017/09/24 17:20 EGJB 241720Z 12005KT 0900 R09/1300 RA FG BKN000 16/16 Q1017
EGJA - Alderney Airport
Distance from station: NE 37km

Current
Fog, Mostly cloudy
Fog, Mostly cloudy
 Wind from S
Wind: S 9 mph , 15 km/h
Temperature: 16°C
Dew Point: 16°C
Humidity: 100%
Barometer: 1017 hPa
Summary: Fog
Clouds: Mostly Cloudy
Visibility: 0 mile , 1 km
Cloud details: Mostly Cloudy 0 m
2017/09/24 16:50 EGJA 241650Z 18008KT 0600 R26/0750 FG BKN000 16/16 Q1017
EGJJ - Jersey Airport
Distance from station: SE 37km

Current
Light rain, Drizzle, Nearby fog, Mostly cloudy
Light rain, Drizzle, Nearby fog, Mostly cloudy
 Wind from SE
Wind: SE 9 mph , 15 km/h
Temperature: 16°C
Dew Point: 16°C
Humidity: 100%
Barometer: 1017 hPa
Summary: Light rain, Drizzle, Nearby fog
Clouds: Mostly Cloudy
Visibility: 1 mile , 1 km
Cloud details: Few Clouds 0 m
Mostly Cloudy 30 m
2017/09/24 17:20 EGJJ 241720Z 14008KT 110V170 1000 R08/1800D -RADZ VCFG FEW000 BKN001 16/16 Q1017 REDZ